METAR Data
IDs: Format: Raw Decoded Include TAF

Data at: 1349 UTC 26 Feb 2021

EDDV 261320Z 31011KT 280V340 9999 FEW034 09/02 Q1031 NOSIG